Time;durP1;ratioP1;P1;durP2;ratioP2;P2;SDS_P1;SDS_P2;PMS_P1;PMS_P2;Temp;Humidity;BMP_temperature;BMP_pressure;BME280_temperature;BME280_humidity;BME280_pressure;Samples;Min_cycle;Max_cycle;Signal;HPM_P1;HPM_P2
2023/08/23 00:00:24;;;;;;;2.72;1.40;;;22.10;62.50;;;;;;5070552;28;20218;-49
2023/08/23 00:02:51;;;;;;;1.40;1.02;;;22.10;62.40;;;;;;5070901;28;20187;-55
2023/08/23 00:05:21;;;;;;;2.17;1.10;;;22.20;62.60;;;;;;5072432;28;20191;-47
2023/08/23 00:07:48;;;;;;;1.23;1.10;;;22.20;62.50;;;;;;5072560;28;20187;-54
2023/08/23 00:10:14;;;;;;;1.73;1.35;;;22.10;62.50;;;;;;5072332;28;20590;-50
2023/08/23 00:12:41;;;;;;;1.23;1.10;;;22.20;62.50;;;;;;5072323;28;20305;-49
2023/08/23 00:15:09;;;;;;;1.52;0.90;;;22.20;62.50;;;;;;5072645;28;20225;-54
2023/08/23 00:17:36;;;;;;;0.88;0.82;;;22.10;62.40;;;;;;5072061;28;20283;-56
2023/08/23 00:20:04;;;;;;;1.88;1.20;;;22.20;62.50;;;;;;5072607;28;20297;-57
2023/08/23 00:22:32;;;;;;;1.90;1.30;;;22.20;62.50;;;;;;5072288;28;20215;-48
2023/08/23 00:24:59;;;;;;;1.75;1.27;;;22.10;62.40;;;;;;5072498;28;20297;-57
2023/08/23 00:27:26;;;;;;;3.38;1.10;;;22.10;62.40;;;;;;5072217;28;20667;-56
2023/08/23 00:29:53;;;;;;;1.20;1.10;;;22.20;62.50;;;;;;5072119;28;20301;-55
2023/08/23 00:32:20;;;;;;;1.50;1.10;;;22.10;62.30;;;;;;5072167;28;20210;-57
2023/08/23 00:34:46;;;;;;;1.45;0.98;;;22.10;62.30;;;;;;5072392;28;20301;-49
2023/08/23 00:37:13;;;;;;;1.33;1.10;;;22.10;62.20;;;;;;5072281;28;20191;-54
2023/08/23 00:39:41;;;;;;;1.13;1.00;;;22.10;62.20;;;;;;5072347;28;20437;-53
2023/08/23 00:42:08;;;;;;;2.13;1.02;;;22.10;62.20;;;;;;5072397;28;20289;-56
2023/08/23 00:44:35;;;;;;;1.52;1.02;;;22.10;62.20;;;;;;5071963;28;20225;-52
2023/08/23 00:47:02;;;;;;;1.38;0.98;;;22.10;62.10;;;;;;5072110;28;20187;-57
2023/08/23 00:49:33;;;;;;;1.85;1.00;;;22.10;62.10;;;;;;5072524;28;20246;-56
2023/08/23 00:52:02;;;;;;;1.10;1.00;;;22.10;62.00;;;;;;5071957;28;20195;-50
2023/08/23 00:54:29;;;;;;;1.30;1.20;;;22.10;62.00;;;;;;5071840;28;20353;-52
2023/08/23 00:57:00;;;;;;;1.63;1.00;;;22.10;62.00;;;;;;5072156;28;20222;-47
2023/08/23 00:59:28;;;;;;;1.02;0.93;;;22.10;61.90;;;;;;5072401;28;20222;-55
2023/08/23 01:01:55;;;;;;;2.85;1.00;;;22.10;61.90;;;;;;5071910;28;20273;-52
2023/08/23 01:04:21;;;;;;;1.48;0.98;;;22.10;61.80;;;;;;5072017;28;20305;-52
2023/08/23 01:06:55;;;;;;;1.33;0.93;;;22.00;61.70;;;;;;5071643;28;20656;-49
2023/08/23 01:09:34;;;;;;;2.55;1.13;;;22.10;61.80;;;;;;5071726;28;20779;-54
2023/08/23 01:12:11;;;;;;;0.95;0.85;;;22.00;61.70;;;;;;5073368;28;20290;-56
2023/08/23 01:14:46;;;;;;;1.10;0.70;;;22.00;61.70;;;;;;5075490;28;20715;-51
2023/08/23 01:17:15;;;;;;;3.13;0.80;;;22.00;61.60;;;;;;5075602;28;20261;-49
2023/08/23 01:19:46;;;;;;;1.30;1.00;;;22.00;61.60;;;;;;5075740;28;20215;-52
2023/08/23 01:22:18;;;;;;;1.95;1.05;;;22.00;61.60;;;;;;5075474;28;20282;-51
2023/08/23 01:24:47;;;;;;;0.88;0.77;;;22.10;61.70;;;;;;5075590;28;20594;-58
2023/08/23 01:27:14;;;;;;;1.30;0.90;;;22.00;61.50;;;;;;5075505;28;20282;-55
2023/08/23 01:29:40;;;;;;;1.60;0.98;;;22.00;61.50;;;;;;5075424;28;20301;-49
2023/08/23 01:32:31;;;;;;;0.90;0.80;;;22.00;61.50;;;;;;5074975;28;20724;-52
2023/08/23 01:35:06;;;;;;;1.55;1.05;;;22.00;61.40;;;;;;5075475;28;20222;-56
2023/08/23 01:37:34;;;;;;;1.10;0.80;;;22.00;61.40;;;;;;5075220;28;20210;-49
2023/08/23 01:40:03;;;;;;;1.33;0.88;;;22.00;61.40;;;;;;5075294;28;20246;-53
2023/08/23 01:42:30;;;;;;;0.80;0.80;;;22.00;61.40;;;;;;5075062;28;20186;-52
2023/08/23 01:44:58;;;;;;;1.10;0.90;;;22.00;61.30;;;;;;5075172;28;20246;-50
2023/08/23 01:47:24;;;;;;;1.10;0.80;;;22.00;61.20;;;;;;5075049;28;20198;-53
2023/08/23 01:49:51;;;;;;;1.00;0.90;;;22.00;61.20;;;;;;5074861;28;20217;-51
2023/08/23 01:52:18;;;;;;;1.33;0.80;;;22.00;61.20;;;;;;5074980;28;20643;-56
2023/08/23 01:54:45;;;;;;;0.82;0.82;;;22.00;61.10;;;;;;5074630;28;20242;-54
2023/08/23 01:57:13;;;;;;;1.20;0.95;;;22.00;61.10;;;;;;5075091;28;20289;-53
2023/08/23 01:59:40;;;;;;;1.60;1.00;;;22.00;61.10;;;;;;5075015;28;20219;-50
2023/08/23 02:02:07;;;;;;;0.80;0.80;;;22.00;61.00;;;;;;5075048;28;20281;-52
2023/08/23 02:04:34;;;;;;;0.95;0.90;;;22.00;61.80;;;;;;5074858;28;20229;-55
2023/08/23 02:07:01;;;;;;;1.50;0.90;;;22.00;60.90;;;;;;5074424;28;20194;-55
2023/08/23 02:09:28;;;;;;;1.08;0.88;;;22.00;60.80;;;;;;5074406;28;20253;-52
2023/08/23 02:11:55;;;;;;;0.88;0.88;;;22.00;60.80;;;;;;5074523;28;20191;-56
2023/08/23 02:14:23;;;;;;;0.85;0.70;;;22.00;60.80;;;;;;5074531;28;20234;-54
2023/08/23 02:16:50;;;;;;;0.80;0.80;;;21.90;60.70;;;;;;5074469;28;20736;-54
2023/08/23 02:19:16;;;;;;;1.23;0.95;;;21.90;60.60;;;;;;5074541;28;20222;-48
2023/08/23 02:21:43;;;;;;;1.08;0.95;;;22.00;61.50;;;;;;5074045;28;20562;-54
2023/08/23 02:24:10;;;;;;;0.93;0.82;;;21.90;60.50;;;;;;5073458;28;20622;-52
2023/08/23 02:26:37;;;;;;;1.00;0.90;;;22.00;60.60;;;;;;5074074;28;20751;-52
2023/08/23 02:29:04;;;;;;;2.45;1.08;;;22.00;60.60;;;;;;5074385;28;20218;-53
2023/08/23 02:31:32;;;;;;;1.10;0.70;;;22.00;60.50;;;;;;5074464;28;20222;-51
2023/08/23 02:33:59;;;;;;;0.75;0.60;;;21.90;60.40;;;;;;5074166;28;20234;-53
2023/08/23 02:36:26;;;;;;;0.95;0.73;;;21.90;60.30;;;;;;5074219;28;20269;-51
2023/08/23 02:38:54;;;;;;;0.68;0.68;;;21.90;60.30;;;;;;5074046;28;20306;-51
2023/08/23 02:41:21;;;;;;;1.75;0.90;;;21.90;60.30;;;;;;5074019;28;20736;-55
2023/08/23 02:43:48;;;;;;;0.70;0.70;;;21.90;60.30;;;;;;5073977;28;20783;-55
2023/08/23 02:46:15;;;;;;;0.70;0.70;;;21.90;60.20;;;;;;5073898;28;20190;-53
2023/08/23 02:48:43;;;;;;;0.65;0.65;;;21.90;60.20;;;;;;5073936;28;20309;-49
2023/08/23 02:51:10;;;;;;;0.90;0.80;;;21.90;60.20;;;;;;5073489;28;20654;-51
2023/08/23 02:53:36;;;;;;;1.48;0.68;;;21.90;60.20;;;;;;5073426;28;20238;-50
2023/08/23 02:56:04;;;;;;;1.05;0.68;;;21.90;60.10;;;;;;5073675;28;20569;-51
2023/08/23 02:58:30;;;;;;;0.85;0.80;;;21.90;60.10;;;;;;5073347;28;20708;-56
2023/08/23 03:00:57;;;;;;;0.90;0.70;;;21.90;60.10;;;;;;5073746;28;20286;-49
2023/08/23 03:03:24;;;;;;;0.70;0.70;;;21.90;60.10;;;;;;5073569;28;20273;-51
2023/08/23 03:05:55;;;;;;;1.00;0.88;;;21.90;60.00;;;;;;5073601;28;20217;-55
2023/08/23 03:08:22;;;;;;;4.68;1.52;;;21.90;60.00;;;;;;5073419;28;20194;-56
2023/08/23 03:10:49;;;;;;;3.33;0.75;;;21.90;60.00;;;;;;5073471;28;20620;-55
2023/08/23 03:13:16;;;;;;;1.33;0.70;;;21.80;59.80;;;;;;5072930;28;20661;-54
2023/08/23 03:15:43;;;;;;;1.40;0.77;;;21.90;59.90;;;;;;5073316;28;20183;-53
2023/08/23 03:18:09;;;;;;;1.70;0.88;;;21.90;59.80;;;;;;5073306;28;20274;-49
2023/08/23 03:20:36;;;;;;;1.40;0.90;;;21.80;59.80;;;;;;5073223;28;20286;-51
2023/08/23 03:23:05;;;;;;;0.90;0.73;;;21.90;59.90;;;;;;5073159;28;20192;-51
2023/08/23 03:25:33;;;;;;;1.27;0.90;;;21.90;59.80;;;;;;5073114;28;20244;-53
2023/08/23 03:28:01;;;;;;;1.17;0.82;;;21.90;59.80;;;;;;5073097;28;20194;-53
2023/08/23 03:30:28;;;;;;;0.90;0.70;;;21.90;59.80;;;;;;5073338;28;20214;-51
2023/08/23 03:32:55;;;;;;;2.95;0.95;;;21.80;59.70;;;;;;5072926;28;20219;-55
2023/08/23 03:35:21;;;;;;;0.80;0.80;;;21.80;59.60;;;;;;5072315;28;20215;-54
2023/08/23 03:37:48;;;;;;;0.73;0.73;;;21.80;59.60;;;;;;5072915;28;20197;-58
2023/08/23 03:40:16;;;;;;;1.02;0.80;;;21.90;59.60;;;;;;5073132;28;20214;-46
2023/08/23 03:42:43;;;;;;;0.70;0.70;;;21.80;59.50;;;;;;5072817;28;20273;-54
2023/08/23 03:45:11;;;;;;;1.17;0.98;;;21.80;59.50;;;;;;5073007;28;20312;-51
2023/08/23 03:47:38;;;;;;;1.08;0.82;;;21.80;59.50;;;;;;5072543;28;20190;-49
2023/08/23 03:50:06;;;;;;;1.15;0.82;;;21.80;59.50;;;;;;5072861;28;20225;-52
2023/08/23 03:52:32;;;;;;;0.93;0.80;;;21.80;59.50;;;;;;5072339;28;20741;-51
2023/08/23 03:54:59;;;;;;;1.45;0.80;;;21.80;59.50;;;;;;5072417;28;20714;-56
2023/08/23 03:57:27;;;;;;;1.40;1.02;;;21.80;59.40;;;;;;5072920;28;20195;-50
2023/08/23 03:59:54;;;;;;;1.10;0.80;;;21.80;59.40;;;;;;5072468;28;20214;-54
2023/08/23 04:02:21;;;;;;;2.38;0.70;;;21.80;59.40;;;;;;5072510;28;20198;-51
2023/08/23 04:04:48;;;;;;;2.35;0.88;;;21.80;59.40;;;;;;5072744;28;20219;-48
2023/08/23 04:07:16;;;;;;;0.80;0.77;;;21.80;59.30;;;;;;5072564;28;20277;-54
2023/08/23 04:09:43;;;;;;;1.02;0.80;;;21.80;59.40;;;;;;5072338;28;20692;-53
2023/08/23 04:12:10;;;;;;;0.95;0.60;;;21.80;59.30;;;;;;5072421;28;20290;-52
2023/08/23 04:14:38;;;;;;;0.80;0.80;;;21.80;59.40;;;;;;5072186;28;20576;-54
2023/08/23 04:17:05;;;;;;;1.45;1.10;;;21.80;59.30;;;;;;5072461;28;20191;-54
2023/08/23 04:19:32;;;;;;;1.10;1.00;;;21.80;59.30;;;;;;5072450;28;20297;-50
2023/08/23 04:21:59;;;;;;;1.00;0.90;;;21.80;59.30;;;;;;5072335;28;20281;-52
2023/08/23 04:24:26;;;;;;;1.65;1.02;;;21.80;59.30;;;;;;5072401;28;20219;-55
2023/08/23 04:26:52;;;;;;;2.58;1.05;;;21.80;59.20;;;;;;5072601;28;20282;-55
2023/08/23 04:29:19;;;;;;;1.85;0.90;;;21.80;59.20;;;;;;5072418;28;20225;-57
2023/08/23 04:31:47;;;;;;;0.98;0.90;;;21.80;59.20;;;;;;5071955;28;20281;-55
2023/08/23 04:34:14;;;;;;;1.48;0.82;;;21.80;59.20;;;;;;5072208;28;20230;-56
2023/08/23 04:36:41;;;;;;;1.85;0.98;;;21.80;59.80;;;;;;5071926;28;20677;-50
2023/08/23 04:39:08;;;;;;;1.63;0.90;;;21.80;59.10;;;;;;5072226;28;20280;-54
2023/08/23 04:41:35;;;;;;;5.15;1.52;;;21.80;59.10;;;;;;5071844;28;20187;-53
2023/08/23 04:44:01;;;;;;;1.13;0.90;;;21.80;59.00;;;;;;5072108;28;20223;-57
2023/08/23 04:46:28;;;;;;;1.23;0.85;;;21.80;59.00;;;;;;5072260;28;20197;-56
2023/08/23 04:48:56;;;;;;;2.33;0.88;;;21.80;59.00;;;;;;5076276;28;20250;-57
2023/08/23 04:51:23;;;;;;;1.42;1.00;;;21.80;59.00;;;;;;5075723;28;20277;-57
2023/08/23 04:53:50;;;;;;;1.38;0.88;;;21.80;59.00;;;;;;5075777;28;20238;-48
2023/08/23 04:56:17;;;;;;;2.00;1.25;;;21.70;58.90;;;;;;5076314;28;20201;-53
2023/08/23 04:58:44;;;;;;;2.15;1.13;;;21.70;58.80;;;;;;5075980;28;20214;-53
2023/08/23 05:01:11;;;;;;;1.75;0.85;;;21.70;58.90;;;;;;5075805;28;20191;-53
2023/08/23 05:03:38;;;;;;;1.45;0.90;;;21.80;59.00;;;;;;5075589;28;20739;-55
2023/08/23 05:06:06;;;;;;;6.93;1.92;;;21.80;59.00;;;;;;5075607;28;20728;-51
2023/08/23 05:08:35;;;;;;;1.40;0.90;;;21.70;58.90;;;;;;5075781;28;20258;-52
2023/08/23 05:11:01;;;;;;;3.20;1.42;;;21.70;58.80;;;;;;5075719;28;20274;-50
2023/08/23 05:13:28;;;;;;;1.08;0.90;;;21.70;58.80;;;;;;5075589;28;20598;-52
2023/08/23 05:15:56;;;;;;;1.40;1.00;;;21.80;58.90;;;;;;5075686;28;20274;-53
2023/08/23 05:18:23;;;;;;;1.10;0.95;;;21.70;58.80;;;;;;5075296;28;20191;-54
2023/08/23 05:20:54;;;;;;;2.75;1.02;;;21.70;58.70;;;;;;5075501;28;20241;-53
2023/08/23 05:23:22;;;;;;;1.92;0.98;;;21.80;58.80;;;;;;5075438;28;20187;-56
2023/08/23 05:25:50;;;;;;;3.30;0.93;;;21.70;58.70;;;;;;5075412;28;20286;-49
2023/08/23 05:28:18;;;;;;;2.45;0.90;;;21.70;58.70;;;;;;5075365;28;20246;-53
2023/08/23 05:30:44;;;;;;;1.48;1.00;;;21.70;58.70;;;;;;5075264;28;20187;-55
2023/08/23 05:33:12;;;;;;;3.88;0.90;;;21.70;58.60;;;;;;5074997;28;20191;-56
2023/08/23 05:35:40;;;;;;;1.10;0.80;;;21.70;58.60;;;;;;5075493;28;20234;-49
2023/08/23 05:38:06;;;;;;;1.73;1.10;;;21.70;59.20;;;;;;5075206;28;20193;-54
2023/08/23 05:40:35;;;;;;;0.98;0.88;;;21.70;58.60;;;;;;5075397;28;20314;-53
2023/08/23 05:43:01;;;;;;;1.65;0.80;;;21.70;58.50;;;;;;5075116;28;20198;-55
2023/08/23 05:45:28;;;;;;;1.42;1.08;;;21.70;58.60;;;;;;5075306;28;20214;-54
2023/08/23 05:47:55;;;;;;;1.10;0.90;;;21.70;58.50;;;;;;5074789;28;20732;-54
2023/08/23 05:50:22;;;;;;;1.15;0.80;;;21.70;58.50;;;;;;5074902;28;20253;-55
2023/08/23 05:52:50;;;;;;;1.25;0.98;;;21.70;58.50;;;;;;5074773;28;20202;-55
2023/08/23 05:55:17;;;;;;;0.68;0.68;;;21.70;58.50;;;;;;5075012;28;20235;-55
2023/08/23 05:57:45;;;;;;;1.27;0.85;;;21.70;58.50;;;;;;5074852;28;20199;-53
2023/08/23 06:00:13;;;;;;;3.00;1.10;;;21.70;58.50;;;;;;5074368;28;20226;-51
2023/08/23 06:02:40;;;;;;;1.70;1.00;;;21.70;58.50;;;;;;5074829;28;20245;-47
2023/08/23 06:05:10;;;;;;;3.13;1.10;;;21.70;58.50;;;;;;5074926;28;20310;-46
2023/08/23 06:07:37;;;;;;;1.20;0.80;;;21.70;58.50;;;;;;5074727;28;20231;-50
2023/08/23 06:10:05;;;;;;;2.05;1.00;;;21.70;58.40;;;;;;5074789;28;20301;-54
2023/08/23 06:12:32;;;;;;;1.35;0.90;;;21.70;58.50;;;;;;5074479;28;20222;-52
2023/08/23 06:15:00;;;;;;;1.50;1.00;;;21.70;58.40;;;;;;5074590;28;20317;-55
2023/08/23 06:17:28;;;;;;;1.10;1.00;;;21.70;58.40;;;;;;5074248;28;20209;-53
2023/08/23 06:19:55;;;;;;;1.45;1.00;;;21.70;58.40;;;;;;5074557;28;20246;-53
2023/08/23 06:22:22;;;;;;;1.77;1.10;;;21.70;58.40;;;;;;5074255;28;20195;-53
2023/08/23 06:24:49;;;;;;;2.60;1.20;;;21.70;58.40;;;;;;5074501;28;20421;-50
2023/08/23 06:27:16;;;;;;;2.35;1.15;;;21.70;58.40;;;;;;5074218;28;20194;-57
2023/08/23 06:29:43;;;;;;;1.60;0.93;;;21.70;58.40;;;;;;5074140;28;20218;-58
2023/08/23 06:32:11;;;;;;;1.98;1.20;;;21.70;58.40;;;;;;5074171;28;20187;-53
2023/08/23 06:34:39;;;;;;;1.98;1.10;;;21.70;58.50;;;;;;5074174;28;20321;-54
2023/08/23 06:37:06;;;;;;;2.35;1.10;;;21.70;58.50;;;;;;5074100;28;20191;-51
2023/08/23 06:39:33;;;;;;;5.68;1.10;;;21.70;58.40;;;;;;5074382;28;20305;-49
2023/08/23 06:42:00;;;;;;;2.20;1.10;;;21.70;58.50;;;;;;5074040;28;20275;-49
2023/08/23 06:44:27;;;;;;;1.98;1.02;;;21.70;58.50;;;;;;5074018;28;20224;-56
2023/08/23 06:46:53;;;;;;;2.08;0.98;;;21.70;59.20;;;;;;5073965;28;20255;-50
2023/08/23 06:49:22;;;;;;;1.95;1.00;;;21.70;58.50;;;;;;5073972;28;20250;-52
2023/08/23 06:51:49;;;;;;;2.05;1.20;;;21.70;58.50;;;;;;5074058;28;20205;-56
2023/08/23 06:54:16;;;;;;;4.97;1.40;;;21.70;58.50;;;;;;5073553;28;20270;-51
2023/08/23 06:56:43;;;;;;;2.88;1.08;;;21.70;58.50;;;;;;5069959;28;20199;-55
2023/08/23 06:59:10;;;;;;;3.25;1.17;;;21.70;58.50;;;;;;5066518;28;20223;-57
2023/08/23 07:01:36;;;;;;;3.67;1.17;;;21.70;58.50;;;;;;5053128;28;20287;-54
2023/08/23 07:04:03;;;;;;;3.63;1.23;;;21.70;58.50;;;;;;5085965;28;20762;-57
2023/08/23 07:06:32;;;;;;;2.88;1.10;;;21.70;58.50;;;;;;5088807;28;20191;-56
2023/08/23 07:08:59;;;;;;;3.17;1.15;;;21.80;58.60;;;;;;5073151;28;20222;-56
2023/08/23 07:11:26;;;;;;;1.58;0.88;;;21.80;58.50;;;;;;5072877;28;20193;-56
2023/08/23 07:13:52;;;;;;;1.75;1.08;;;21.80;58.40;;;;;;5073204;28;20250;-55
2023/08/23 07:16:20;;;;;;;2.03;1.13;;;21.80;58.20;;;;;;5070658;28;20214;-54
2023/08/23 07:18:47;;;;;;;4.72;1.10;;;21.90;58.20;;;;;;5071144;28;20226;-56
2023/08/23 07:21:15;;;;;;;2.70;1.20;;;21.90;58.10;;;;;;5069393;28;20205;-58
2023/08/23 07:23:43;;;;;;;1.90;1.20;;;21.90;58.00;;;;;;5065471;28;20579;-58
2023/08/23 07:26:10;;;;;;;3.25;1.30;;;22.00;58.00;;;;;;5070447;28;20289;-57
2023/08/23 07:28:37;;;;;;;3.22;1.50;;;22.00;57.90;;;;;;5072560;28;20221;-57
2023/08/23 07:31:04;;;;;;;5.22;1.50;;;22.10;58.00;;;;;;5071171;28;20230;-58
2023/08/23 07:33:31;;;;;;;1.75;1.33;;;22.10;58.00;;;;;;5072115;28;20191;-55
2023/08/23 07:35:58;;;;;;;3.45;1.20;;;22.10;57.90;;;;;;5071599;28;20305;-54
2023/08/23 07:38:26;;;;;;;2.35;1.23;;;22.10;57.90;;;;;;5069411;28;20213;-57
2023/08/23 07:40:58;;;;;;;1.55;1.20;;;22.10;57.90;;;;;;5076312;28;20199;-56
2023/08/23 07:43:25;;;;;;;3.88;1.48;;;22.20;58.00;;;;;;5070213;28;20569;-56
2023/08/23 07:45:53;;;;;;;1.95;1.00;;;22.10;57.90;;;;;;5086608;28;20195;-57
2023/08/23 07:48:20;;;;;;;3.80;1.25;;;22.20;58.00;;;;;;5070355;28;20222;-57
2023/08/23 07:50:49;;;;;;;4.55;1.40;;;22.30;58.10;;;;;;5072266;28;20724;-57
2023/08/23 07:53:16;;;;;;;8.45;1.60;;;22.30;58.10;;;;;;5085168;28;20313;-56
2023/08/23 07:55:43;;;;;;;7.97;1.73;;;22.30;58.10;;;;;;5071771;28;20246;-57
2023/08/23 07:58:11;;;;;;;9.90;1.85;;;22.30;58.00;;;;;;5070280;28;20281;-57
2023/08/23 08:00:39;;;;;;;6.28;1.40;;;22.20;58.60;;;;;;5072201;28;20261;-54
2023/08/23 08:03:06;;;;;;;10.70;1.70;;;22.30;58.10;;;;;;5070675;28;20190;-57
2023/08/23 08:05:34;;;;;;;7.85;1.88;;;22.30;58.10;;;;;;5072457;28;20632;-55
2023/08/23 08:08:02;;;;;;;10.68;2.00;;;22.30;58.10;;;;;;5070287;28;20195;-57
2023/08/23 08:10:29;;;;;;;2.95;1.40;;;22.30;58.20;;;;;;5070875;28;20233;-57
2023/08/23 08:12:58;;;;;;;3.85;1.55;;;22.40;58.20;;;;;;5071469;28;20225;-56
2023/08/23 08:15:27;;;;;;;10.68;1.95;;;22.40;58.20;;;;;;5070998;28;20235;-55
2023/08/23 08:17:54;;;;;;;11.45;2.10;;;22.40;58.20;;;;;;5070348;28;20202;-57
2023/08/23 08:20:23;;;;;;;5.53;1.90;;;22.40;58.20;;;;;;5070772;28;20808;-56
2023/08/23 08:22:50;;;;;;;12.57;1.83;;;22.40;58.20;;;;;;5071085;28;20191;-56
2023/08/23 08:25:17;;;;;;;7.13;1.75;;;22.40;58.20;;;;;;5070520;28;20214;-55
2023/08/23 08:27:44;;;;;;;13.95;2.55;;;22.40;58.20;;;;;;5070703;28;20195;-56
2023/08/23 08:30:11;;;;;;;6.22;1.70;;;22.40;58.20;;;;;;5071587;28;20222;-56
2023/08/23 08:32:40;;;;;;;11.48;2.03;;;22.40;58.20;;;;;;5071532;28;20186;-57
2023/08/23 08:35:07;;;;;;;12.13;1.58;;;22.40;58.30;;;;;;5067863;28;20310;-57
2023/08/23 08:37:34;;;;;;;8.80;1.88;;;22.40;58.30;;;;;;5071574;28;20234;-58
2023/08/23 08:40:01;;;;;;;6.97;2.20;;;22.40;58.30;;;;;;5071785;28;20305;-56
2023/08/23 08:42:29;;;;;;;8.50;1.70;;;22.40;58.30;;;;;;5071180;28;20290;-57
2023/08/23 08:44:56;;;;;;;8.70;1.83;;;22.50;58.40;;;;;;5070640;28;20268;-57
2023/08/23 08:47:23;;;;;;;7.70;1.33;;;22.40;58.30;;;;;;5070733;28;20214;-57
2023/08/23 08:49:52;;;;;;;6.65;1.88;;;22.50;58.50;;;;;;5067436;28;20313;-57
2023/08/23 08:52:21;;;;;;;11.57;2.13;;;22.50;58.50;;;;;;5070954;28;20283;-57
2023/08/23 08:54:50;;;;;;;9.30;1.83;;;22.40;58.40;;;;;;5068700;28;20735;-57
2023/08/23 08:57:18;;;;;;;4.32;1.58;;;22.50;58.60;;;;;;5068201;28;20199;-57
2023/08/23 08:59:46;;;;;;;6.70;1.95;;;22.50;58.60;;;;;;5076316;28;20214;-56
2023/08/23 09:02:16;;;;;;;7.03;1.58;;;22.50;58.70;;;;;;5070595;28;20289;-52
2023/08/23 09:04:46;;;;;;;14.23;2.05;;;22.50;58.70;;;;;;5070664;28;20223;-55
2023/08/23 09:07:15;;;;;;;4.00;1.55;;;22.50;58.80;;;;;;5070161;28;20202;-55
2023/08/23 09:09:43;;;;;;;4.55;1.90;;;22.50;58.80;;;;;;5071195;28;20735;-52
2023/08/23 09:12:10;;;;;;;11.65;2.50;;;22.50;58.80;;;;;;5071256;28;20285;-57
2023/08/23 09:14:40;;;;;;;7.93;1.50;;;22.50;58.90;;;;;;5071026;28;20229;-57
2023/08/23 09:17:07;;;;;;;10.40;1.60;;;22.50;58.90;;;;;;5070842;28;20221;-56
2023/08/23 09:19:36;;;;;;;11.57;1.80;;;22.50;58.90;;;;;;5071583;28;20226;-55
2023/08/23 09:22:05;;;;;;;11.15;1.73;;;22.50;58.90;;;;;;5069423;28;20210;-56
2023/08/23 09:24:34;;;;;;;7.82;1.98;;;22.50;59.20;;;;;;5068886;28;20226;-56
2023/08/23 09:27:01;;;;;;;6.82;1.58;;;22.50;59.00;;;;;;5068286;28;20195;-57
2023/08/23 09:29:28;;;;;;;9.95;1.77;;;22.60;59.10;;;;;;5069917;28;20221;-56
2023/08/23 09:31:58;;;;;;;7.13;2.05;;;22.60;59.10;;;;;;5062056;28;20695;-56
2023/08/23 09:34:25;;;;;;;6.90;1.50;;;22.50;59.10;;;;;;5074317;28;20305;-56
2023/08/23 09:36:52;;;;;;;9.80;1.58;;;22.50;59.10;;;;;;5074172;28;20218;-56
2023/08/23 09:39:19;;;;;;;6.05;1.63;;;22.50;59.10;;;;;;5074318;28;20751;-55
2023/08/23 09:41:48;;;;;;;8.82;1.73;;;22.60;59.30;;;;;;5072432;28;20286;-55
2023/08/23 09:44:16;;;;;;;7.03;1.60;;;22.60;59.30;;;;;;5074553;28;20219;-57
2023/08/23 09:46:45;;;;;;;4.75;1.83;;;22.60;59.30;;;;;;5074242;28;20459;-55
2023/08/23 09:49:14;;;;;;;6.68;1.45;;;22.70;59.40;;;;;;5073864;28;20597;-57
2023/08/23 09:51:41;;;;;;;5.07;1.65;;;22.60;59.40;;;;;;5079535;28;20657;-57
2023/08/23 09:54:13;;;;;;;4.15;1.52;;;22.60;59.40;;;;;;5094259;28;20786;-55
2023/08/23 09:56:42;;;;;;;9.07;1.77;;;22.60;59.40;;;;;;5089023;28;20221;-56
2023/08/23 09:59:11;;;;;;;7.05;1.80;;;22.70;59.50;;;;;;5074038;28;20229;-56
2023/08/23 10:01:39;;;;;;;6.53;1.60;;;22.60;59.40;;;;;;5073902;28;20670;-56
2023/08/23 10:04:07;;;;;;;4.10;1.52;;;22.60;59.40;;;;;;5073964;28;20221;-56
2023/08/23 10:06:35;;;;;;;5.72;1.90;;;22.60;59.40;;;;;;5071321;28;20218;-56
2023/08/23 10:09:03;;;;;;;5.85;1.88;;;22.70;59.60;;;;;;5073678;28;20630;-56
2023/08/23 10:11:31;;;;;;;4.93;1.52;;;22.60;59.50;;;;;;5070834;28;20183;-57
2023/08/23 10:14:00;;;;;;;5.00;1.77;;;22.60;59.50;;;;;;5073370;28;20310;-56
2023/08/23 10:16:30;;;;;;;4.78;1.88;;;22.60;59.60;;;;;;5073575;28;20309;-56
2023/08/23 10:18:57;;;;;;;5.07;1.65;;;22.60;59.60;;;;;;5073484;28;20205;-55
2023/08/23 10:21:26;;;;;;;8.00;2.33;;;22.70;59.70;;;;;;5073763;28;20237;-56
2023/08/23 10:23:54;;;;;;;6.38;1.75;;;22.70;59.70;;;;;;5073597;28;20198;-53
2023/08/23 10:26:22;;;;;;;6.80;1.70;;;22.70;59.70;;;;;;5073130;28;20183;-56
2023/08/23 10:28:51;;;;;;;4.70;1.60;;;22.70;59.70;;;;;;5071127;28;20187;-55
2023/08/23 10:31:24;;;;;;;3.83;1.95;;;22.70;59.70;;;;;;5071797;28;20221;-55
2023/08/23 10:33:56;;;;;;;4.00;1.80;;;22.70;59.80;;;;;;5071397;28;20893;-53
2023/08/23 10:36:25;;;;;;;3.25;1.60;;;22.70;59.80;;;;;;5073359;28;20257;-55
2023/08/23 10:38:53;;;;;;;4.32;1.70;;;22.70;59.90;;;;;;5073320;28;20187;-57
2023/08/23 10:41:20;;;;;;;7.10;1.70;;;22.70;59.90;;;;;;5073222;28;20652;-54
2023/08/23 10:43:48;;;;;;;3.40;1.88;;;22.70;59.90;;;;;;5070562;28;20187;-54
2023/08/23 10:46:18;;;;;;;3.58;1.42;;;22.70;59.90;;;;;;5071840;28;20198;-55
2023/08/23 10:48:46;;;;;;;5.75;1.90;;;22.70;60.00;;;;;;5072661;28;20654;-56
2023/08/23 10:51:15;;;;;;;4.97;1.50;;;22.70;60.00;;;;;;5077019;28;20184;-56
2023/08/23 10:53:43;;;;;;;5.70;1.80;;;22.70;60.00;;;;;;5089397;28;20225;-56
2023/08/23 10:56:11;;;;;;;6.07;1.60;;;22.70;60.10;;;;;;5072361;28;20237;-57
2023/08/23 10:58:38;;;;;;;2.72;1.50;;;22.70;60.10;;;;;;5072795;28;20302;-56
2023/08/23 11:01:05;;;;;;;3.08;1.38;;;22.80;60.30;;;;;;5070764;28;20219;-57
2023/08/23 11:03:34;;;;;;;5.32;1.75;;;22.80;60.30;;;;;;5072764;28;20273;-57
2023/08/23 11:06:01;;;;;;;5.55;1.80;;;22.80;61.10;;;;;;5072780;28;20771;-56
2023/08/23 11:08:30;;;;;;;4.07;1.70;;;22.80;60.30;;;;;;5072567;28;20223;-54
2023/08/23 11:10:57;;;;;;;4.10;1.83;;;22.80;60.30;;;;;;5069659;28;20221;-56
2023/08/23 11:13:24;;;;;;;5.97;1.90;;;22.80;60.40;;;;;;5072270;28;20191;-57
2023/08/23 11:15:51;;;;;;;3.65;1.73;;;22.80;60.40;;;;;;5070460;28;20272;-56
2023/08/23 11:18:18;;;;;;;3.65;1.52;;;22.80;60.50;;;;;;5072417;28;20194;-56
2023/08/23 11:20:45;;;;;;;3.72;1.90;;;22.80;60.50;;;;;;5072545;28;20214;-57
2023/08/23 11:23:12;;;;;;;3.00;1.73;;;22.80;60.50;;;;;;5071831;28;20287;-54
2023/08/23 11:25:40;;;;;;;5.90;1.63;;;22.80;60.60;;;;;;5072445;28;20310;-56
2023/08/23 11:28:08;;;;;;;4.03;1.80;;;22.80;60.60;;;;;;5069059;28;20225;-56
2023/08/23 11:30:34;;;;;;;3.55;1.80;;;22.80;60.60;;;;;;5072419;28;20959;-57
2023/08/23 11:33:02;;;;;;;2.75;1.50;;;22.80;60.70;;;;;;5072214;28;20218;-56
2023/08/23 11:35:29;;;;;;;2.85;1.52;;;22.80;60.70;;;;;;5070420;28;20606;-56
2023/08/23 11:38:00;;;;;;;6.43;1.63;;;22.80;60.70;;;;;;5066329;28;20187;-55
2023/08/23 11:40:28;;;;;;;8.13;1.70;;;22.80;60.80;;;;;;5071387;28;20219;-57
2023/08/23 11:42:58;;;;;;;3.38;1.73;;;22.80;60.70;;;;;;5068270;28;20195;-57
2023/08/23 11:45:26;;;;;;;6.88;1.77;;;22.80;61.50;;;;;;5045611;28;20230;-57
2023/08/23 11:47:54;;;;;;;3.90;2.00;;;22.80;60.90;;;;;;5065106;28;20574;-55
2023/08/23 11:50:21;;;;;;;5.07;1.90;;;22.80;60.80;;;;;;5067890;28;20311;-56
2023/08/23 11:52:49;;;;;;;2.72;1.80;;;22.80;60.90;;;;;;5071085;28;20240;-56
2023/08/23 11:55:22;;;;;;;4.07;1.80;;;22.80;60.80;;;;;;5073497;28;20339;-56
2023/08/23 11:57:53;;;;;;;5.63;1.70;;;22.80;60.90;;;;;;5067895;28;20241;-56
2023/08/23 12:00:21;;;;;;;6.68;1.70;;;22.80;61.10;;;;;;5070903;28;20306;-54
2023/08/23 12:02:48;;;;;;;4.47;1.98;;;22.90;61.20;;;;;;5069724;28;20290;-56
2023/08/23 12:05:16;;;;;;;3.22;1.85;;;22.80;61.10;;;;;;5040627;28;20227;-53
2023/08/23 12:07:43;;;;;;;9.40;1.92;;;22.90;61.20;;;;;;5053996;28;20198;-55
2023/08/23 12:10:11;;;;;;;5.88;2.08;;;22.90;61.30;;;;;;5055688;28;20278;-54
2023/08/23 12:12:38;;;;;;;5.88;2.22;;;22.90;61.30;;;;;;5060447;28;20244;-56
2023/08/23 12:15:06;;;;;;;8.95;6.28;;;22.90;61.40;;;;;;5062395;28;20215;-54
2023/08/23 12:17:35;;;;;;;98.05;82.00;;;22.90;61.40;;;;;;5062109;28;20297;-56
2023/08/23 12:20:04;;;;;;;80.22;61.85;;;22.90;62.20;;;;;;5056385;28;20230;-53
2023/08/23 12:22:31;;;;;;;91.72;68.82;;;22.90;61.30;;;;;;5062961;28;20195;-56
2023/08/23 12:24:58;;;;;;;94.30;68.97;;;22.90;61.30;;;;;;5062696;28;20711;-56
2023/08/23 12:27:25;;;;;;;83.80;58.83;;;22.90;61.30;;;;;;5058189;28;20672;-56
2023/08/23 12:29:52;;;;;;;122.22;87.50;;;23.00;61.40;;;;;;5059483;28;20218;-54
2023/08/23 12:32:19;;;;;;;162.82;112.15;;;23.00;61.40;;;;;;5053562;28;20692;-56
2023/08/23 12:34:49;;;;;;;158.75;106.97;;;23.00;61.50;;;;;;5036573;28;20223;-55
2023/08/23 12:37:18;;;;;;;280.23;56.45;;;23.00;61.40;;;;;;5047039;28;20250;-54
2023/08/23 12:39:46;;;;;;;105.47;54.78;;;23.00;64.20;;;;;;5062964;28;20782;-56
2023/08/23 12:42:14;;;;;;;104.20;60.30;;;22.90;63.20;;;;;;5058879;28;20798;-56
2023/08/23 12:44:44;;;;;;;77.50;45.83;;;22.80;63.10;;;;;;5043404;28;20214;-56
2023/08/23 12:47:13;;;;;;;49.38;33.35;;;22.80;63.20;;;;;;5057908;28;20691;-52